sensor_id;sensor_type;location;lat;lon;timestamp;temperature;humidity
22212;DHT22;11275;52.488;13.462;2022-10-16T00:01:46;15.50;99.90
22212;DHT22;11275;52.488;13.462;2022-10-16T00:04:12;15.50;99.90
22212;DHT22;11275;52.488;13.462;2022-10-16T00:06:38;15.50;99.90
22212;DHT22;11275;52.488;13.462;2022-10-16T00:09:04;15.60;99.90
22212;DHT22;11275;52.488;13.462;2022-10-16T00:11:33;15.60;99.90
22212;DHT22;11275;52.488;13.462;2022-10-16T00:14:00;15.60;99.90
22212;DHT22;11275;52.488;13.462;2022-10-16T00:16:27;15.60;99.90
22212;DHT22;11275;52.488;13.462;2022-10-16T00:18:53;15.70;99.90
22212;DHT22;11275;52.488;13.462;2022-10-16T00:21:22;15.70;99.90
22212;DHT22;11275;52.488;13.462;2022-10-16T00:23:55;15.70;99.90
22212;DHT22;11275;52.488;13.462;2022-10-16T00:26:21;15.70;99.90
22212;DHT22;11275;52.488;13.462;2022-10-16T00:28:48;15.80;99.90
22212;DHT22;11275;52.488;13.462;2022-10-16T00:31:14;15.80;99.90
22212;DHT22;11275;52.488;13.462;2022-10-16T00:33:40;15.80;99.90
22212;DHT22;11275;52.488;13.462;2022-10-16T00:36:09;15.90;99.90
22212;DHT22;11275;52.488;13.462;2022-10-16T00:38:35;15.90;99.90
22212;DHT22;11275;52.488;13.462;2022-10-16T00:41:01;15.90;99.90
22212;DHT22;11275;52.488;13.462;2022-10-16T00:46:10;16.00;99.90
22212;DHT22;11275;52.488;13.462;2022-10-16T00:48:36;16.00;99.90
22212;DHT22;11275;52.488;13.462;2022-10-16T00:51:03;16.00;99.90
22212;DHT22;11275;52.488;13.462;2022-10-16T00:53:30;16.00;99.90
22212;DHT22;11275;52.488;13.462;2022-10-16T00:55:55;16.00;99.90
22212;DHT22;11275;52.488;13.462;2022-10-16T00:58:21;16.00;99.90
22212;DHT22;11275;52.488;13.462;2022-10-16T01:00:47;16.00;99.90
22212;DHT22;11275;52.488;13.462;2022-10-16T01:14:54;15.90;99.90
22212;DHT22;11275;52.488;13.462;2022-10-16T01:17:32;16.00;99.90
22212;DHT22;11275;52.488;13.462;2022-10-16T01:20:22;16.00;99.90
22212;DHT22;11275;52.488;13.462;2022-10-16T01:31:34;15.90;99.90
22212;DHT22;11275;52.488;13.462;2022-10-16T01:34:11;15.80;99.90
22212;DHT22;11275;52.488;13.462;2022-10-16T01:36:45;15.80;99.90
22212;DHT22;11275;52.488;13.462;2022-10-16T01:39:13;15.90;99.90
22212;DHT22;11275;52.488;13.462;2022-10-16T01:41:44;15.90;99.90
22212;DHT22;11275;52.488;13.462;2022-10-16T01:44:18;15.90;99.90
22212;DHT22;11275;52.488;13.462;2022-10-16T01:46:47;15.90;99.90
22212;DHT22;11275;52.488;13.462;2022-10-16T01:49:14;15.90;99.90
22212;DHT22;11275;52.488;13.462;2022-10-16T01:51:43;15.90;99.90
22212;DHT22;11275;52.488;13.462;2022-10-16T01:54:14;15.80;99.90
22212;DHT22;11275;52.488;13.462;2022-10-16T01:56:52;15.80;99.90
22212;DHT22;11275;52.488;13.462;2022-10-16T01:59:25;15.90;99.90
22212;DHT22;11275;52.488;13.462;2022-10-16T02:01:58;15.90;99.90
22212;DHT22;11275;52.488;13.462;2022-10-16T02:04:32;15.90;99.90
22212;DHT22;11275;52.488;13.462;2022-10-16T02:06:58;15.90;99.90
22212;DHT22;11275;52.488;13.462;2022-10-16T02:09:24;15.90;99.90
22212;DHT22;11275;52.488;13.462;2022-10-16T02:11:53;16.00;99.90
22212;DHT22;11275;52.488;13.462;2022-10-16T02:14:20;16.00;99.90
22212;DHT22;11275;52.488;13.462;2022-10-16T02:16:47;16.00;99.90
22212;DHT22;11275;52.488;13.462;2022-10-16T02:19:13;16.10;99.90
22212;DHT22;11275;52.488;13.462;2022-10-16T02:21:59;16.10;99.90
22212;DHT22;11275;52.488;13.462;2022-10-16T02:30:21;16.10;99.90
22212;DHT22;11275;52.488;13.462;2022-10-16T02:32:48;16.10;99.90
22212;DHT22;11275;52.488;13.462;2022-10-16T02:35:20;16.20;99.90
22212;DHT22;11275;52.488;13.462;2022-10-16T02:37:47;16.20;99.90
22212;DHT22;11275;52.488;13.462;2022-10-16T02:40:15;16.20;99.90
22212;DHT22;11275;52.488;13.462;2022-10-16T02:42:41;16.20;99.90
22212;DHT22;11275;52.488;13.462;2022-10-16T02:45:08;16.20;99.90
22212;DHT22;11275;52.488;13.462;2022-10-16T02:47:34;16.20;99.90
22212;DHT22;11275;52.488;13.462;2022-10-16T02:50:00;16.20;99.90
22212;DHT22;11275;52.488;13.462;2022-10-16T02:52:26;16.20;99.90
22212;DHT22;11275;52.488;13.462;2022-10-16T02:54:52;16.20;99.90
22212;DHT22;11275;52.488;13.462;2022-10-16T02:57:17;16.30;99.90
22212;DHT22;11275;52.488;13.462;2022-10-16T02:59:43;16.30;99.90
22212;DHT22;11275;52.488;13.462;2022-10-16T03:02:09;16.30;99.90
22212;DHT22;11275;52.488;13.462;2022-10-16T03:04:34;16.20;99.90
22212;DHT22;11275;52.488;13.462;2022-10-16T03:07:00;16.20;99.90
22212;DHT22;11275;52.488;13.462;2022-10-16T03:09:26;16.20;99.90
22212;DHT22;11275;52.488;13.462;2022-10-16T03:11:51;16.20;99.90
22212;DHT22;11275;52.488;13.462;2022-10-16T03:14:17;16.10;99.90
22212;DHT22;11275;52.488;13.462;2022-10-16T03:16:43;16.10;99.90
22212;DHT22;11275;52.488;13.462;2022-10-16T03:19:08;16.10;99.90
22212;DHT22;11275;52.488;13.462;2022-10-16T03:21:34;16.10;99.90
22212;DHT22;11275;52.488;13.462;2022-10-16T03:23:59;16.20;99.90
22212;DHT22;11275;52.488;13.462;2022-10-16T03:26:25;16.10;99.90
22212;DHT22;11275;52.488;13.462;2022-10-16T03:28:50;16.10;99.90
22212;DHT22;11275;52.488;13.462;2022-10-16T03:31:16;16.10;99.90
22212;DHT22;11275;52.488;13.462;2022-10-16T03:33:41;16.10;99.90
22212;DHT22;11275;52.488;13.462;2022-10-16T03:36:07;16.10;99.90
22212;DHT22;11275;52.488;13.462;2022-10-16T03:38:32;16.10;99.90
22212;DHT22;11275;52.488;13.462;2022-10-16T03:40:58;16.00;99.90
22212;DHT22;11275;52.488;13.462;2022-10-16T03:43:24;16.10;99.90
22212;DHT22;11275;52.488;13.462;2022-10-16T03:45:50;16.00;99.90
22212;DHT22;11275;52.488;13.462;2022-10-16T03:48:17;16.00;99.90
22212;DHT22;11275;52.488;13.462;2022-10-16T03:50:42;16.00;99.90
22212;DHT22;11275;52.488;13.462;2022-10-16T03:53:08;16.00;99.90
22212;DHT22;11275;52.488;13.462;2022-10-16T03:55:35;16.00;99.90
22212;DHT22;11275;52.488;13.462;2022-10-16T03:58:00;16.00;99.90
22212;DHT22;11275;52.488;13.462;2022-10-16T04:00:26;16.00;99.90
22212;DHT22;11275;52.488;13.462;2022-10-16T04:02:52;16.00;99.90
22212;DHT22;11275;52.488;13.462;2022-10-16T04:05:17;16.00;99.90
22212;DHT22;11275;52.488;13.462;2022-10-16T04:07:43;16.00;99.90
22212;DHT22;11275;52.488;13.462;2022-10-16T04:10:09;16.00;99.90
22212;DHT22;11275;52.488;13.462;2022-10-16T04:12:34;16.00;99.90
22212;DHT22;11275;52.488;13.462;2022-10-16T04:15:00;15.90;99.90
22212;DHT22;11275;52.488;13.462;2022-10-16T04:17:25;16.00;99.90
22212;DHT22;11275;52.488;13.462;2022-10-16T04:19:51;16.00;99.90
22212;DHT22;11275;52.488;13.462;2022-10-16T04:22:16;16.00;99.90
22212;DHT22;11275;52.488;13.462;2022-10-16T04:24:42;16.00;99.90
22212;DHT22;11275;52.488;13.462;2022-10-16T04:27:07;16.00;99.90
22212;DHT22;11275;52.488;13.462;2022-10-16T04:29:33;16.00;99.90
22212;DHT22;11275;52.488;13.462;2022-10-16T04:31:59;16.00;99.90
22212;DHT22;11275;52.488;13.462;2022-10-16T04:34:24;16.00;99.90
22212;DHT22;11275;52.488;13.462;2022-10-16T04:36:50;16.00;99.90
22212;DHT22;11275;52.488;13.462;2022-10-16T04:39:16;16.00;99.90
22212;DHT22;11275;52.488;13.462;2022-10-16T04:41:41;15.90;99.90
22212;DHT22;11275;52.488;13.462;2022-10-16T04:44:07;15.90;99.90
22212;DHT22;11275;52.488;13.462;2022-10-16T04:46:33;15.90;99.90
22212;DHT22;11275;52.488;13.462;2022-10-16T04:48:59;15.90;99.90
22212;DHT22;11275;52.488;13.462;2022-10-16T04:51:25;15.90;99.90
22212;DHT22;11275;52.488;13.462;2022-10-16T04:53:53;15.90;99.90
22212;DHT22;11275;52.488;13.462;2022-10-16T04:56:19;15.80;99.90
22212;DHT22;11275;52.488;13.462;2022-10-16T04:58:46;15.80;99.90
22212;DHT22;11275;52.488;13.462;2022-10-16T05:01:11;15.80;99.90
22212;DHT22;11275;52.488;13.462;2022-10-16T05:03:37;15.80;99.90
22212;DHT22;11275;52.488;13.462;2022-10-16T05:06:07;15.80;99.90
22212;DHT22;11275;52.488;13.462;2022-10-16T05:08:34;15.80;99.90
22212;DHT22;11275;52.488;13.462;2022-10-16T05:10:59;15.70;99.90
22212;DHT22;11275;52.488;13.462;2022-10-16T05:13:25;15.70;99.90
22212;DHT22;11275;52.488;13.462;2022-10-16T05:15:51;15.70;99.90
22212;DHT22;11275;52.488;13.462;2022-10-16T05:18:17;15.70;99.90
22212;DHT22;11275;52.488;13.462;2022-10-16T05:20:43;15.70;99.90
22212;DHT22;11275;52.488;13.462;2022-10-16T05:23:08;15.70;99.90
22212;DHT22;11275;52.488;13.462;2022-10-16T05:25:36;15.70;99.90
22212;DHT22;11275;52.488;13.462;2022-10-16T05:28:01;15.70;99.90
22212;DHT22;11275;52.488;13.462;2022-10-16T05:30:27;15.60;99.90
22212;DHT22;11275;52.488;13.462;2022-10-16T05:32:53;15.60;99.90
22212;DHT22;11275;52.488;13.462;2022-10-16T05:35:24;15.60;99.90
22212;DHT22;11275;52.488;13.462;2022-10-16T05:37:49;15.60;99.90
22212;DHT22;11275;52.488;13.462;2022-10-16T05:40:15;15.60;99.90
22212;DHT22;11275;52.488;13.462;2022-10-16T05:42:42;15.50;99.90
22212;DHT22;11275;52.488;13.462;2022-10-16T05:45:09;15.50;99.90
22212;DHT22;11275;52.488;13.462;2022-10-16T05:47:35;15.50;99.90
22212;DHT22;11275;52.488;13.462;2022-10-16T05:50:01;15.60;99.90
22212;DHT22;11275;52.488;13.462;2022-10-16T05:52:27;15.60;99.90
22212;DHT22;11275;52.488;13.462;2022-10-16T05:54:52;15.50;99.90
22212;DHT22;11275;52.488;13.462;2022-10-16T05:57:21;15.50;99.90
22212;DHT22;11275;52.488;13.462;2022-10-16T05:59:47;15.50;99.90
22212;DHT22;11275;52.488;13.462;2022-10-16T06:02:13;15.60;99.90
22212;DHT22;11275;52.488;13.462;2022-10-16T06:04:39;15.60;99.90
22212;DHT22;11275;52.488;13.462;2022-10-16T06:07:05;15.70;99.90
22212;DHT22;11275;52.488;13.462;2022-10-16T06:09:30;15.70;99.90
22212;DHT22;11275;52.488;13.462;2022-10-16T06:11:56;15.60;99.90
22212;DHT22;11275;52.488;13.462;2022-10-16T06:14:22;15.70;99.90
22212;DHT22;11275;52.488;13.462;2022-10-16T06:16:47;15.70;99.90
22212;DHT22;11275;52.488;13.462;2022-10-16T06:19:13;15.70;99.90
22212;DHT22;11275;52.488;13.462;2022-10-16T06:21:39;15.70;99.90
22212;DHT22;11275;52.488;13.462;2022-10-16T06:24:04;15.80;99.90
22212;DHT22;11275;52.488;13.462;2022-10-16T06:26:31;15.70;99.90
22212;DHT22;11275;52.488;13.462;2022-10-16T06:28:58;15.70;99.90
22212;DHT22;11275;52.488;13.462;2022-10-16T06:31:24;15.70;99.90
22212;DHT22;11275;52.488;13.462;2022-10-16T06:33:56;15.70;99.90
22212;DHT22;11275;52.488;13.462;2022-10-16T06:36:23;15.70;99.90
22212;DHT22;11275;52.488;13.462;2022-10-16T06:38:49;15.80;99.90
22212;DHT22;11275;52.488;13.462;2022-10-16T06:41:20;15.80;99.90
22212;DHT22;11275;52.488;13.462;2022-10-16T06:43:46;15.80;99.90
22212;DHT22;11275;52.488;13.462;2022-10-16T06:46:14;15.80;99.90
22212;DHT22;11275;52.488;13.462;2022-10-16T06:48:40;15.90;99.90
22212;DHT22;11275;52.488;13.462;2022-10-16T06:51:10;15.90;99.90
22212;DHT22;11275;52.488;13.462;2022-10-16T06:53:38;15.90;99.90
22212;DHT22;11275;52.488;13.462;2022-10-16T06:56:14;16.00;99.90
22212;DHT22;11275;52.488;13.462;2022-10-16T06:58:41;16.00;99.90
22212;DHT22;11275;52.488;13.462;2022-10-16T07:01:07;16.10;99.90
22212;DHT22;11275;52.488;13.462;2022-10-16T07:03:35;16.10;99.90
22212;DHT22;11275;52.488;13.462;2022-10-16T07:06:03;16.20;99.90
22212;DHT22;11275;52.488;13.462;2022-10-16T07:08:38;16.20;99.90
22212;DHT22;11275;52.488;13.462;2022-10-16T07:11:10;16.30;99.90
22212;DHT22;11275;52.488;13.462;2022-10-16T07:13:37;16.30;99.90
22212;DHT22;11275;52.488;13.462;2022-10-16T07:16:11;16.50;99.90
22212;DHT22;11275;52.488;13.462;2022-10-16T07:18:37;16.60;99.90
22212;DHT22;11275;52.488;13.462;2022-10-16T07:21:06;16.70;99.90
22212;DHT22;11275;52.488;13.462;2022-10-16T07:23:32;16.80;99.90
22212;DHT22;11275;52.488;13.462;2022-10-16T07:25:58;16.80;99.90
22212;DHT22;11275;52.488;13.462;2022-10-16T07:28:24;16.80;99.90
22212;DHT22;11275;52.488;13.462;2022-10-16T07:30:50;16.90;99.90
22212;DHT22;11275;52.488;13.462;2022-10-16T07:33:15;16.90;99.90
22212;DHT22;11275;52.488;13.462;2022-10-16T07:35:59;17.00;99.90
22212;DHT22;11275;52.488;13.462;2022-10-16T07:38:24;17.10;99.90
22212;DHT22;11275;52.488;13.462;2022-10-16T07:41:01;17.10;99.90
22212;DHT22;11275;52.488;13.462;2022-10-16T07:43:28;17.10;99.90
22212;DHT22;11275;52.488;13.462;2022-10-16T07:45:54;17.10;99.90
22212;DHT22;11275;52.488;13.462;2022-10-16T07:48:21;17.10;99.90
22212;DHT22;11275;52.488;13.462;2022-10-16T07:50:47;17.10;99.90
22212;DHT22;11275;52.488;13.462;2022-10-16T07:53:13;17.20;99.90
22212;DHT22;11275;52.488;13.462;2022-10-16T07:55:39;17.10;99.90
22212;DHT22;11275;52.488;13.462;2022-10-16T07:58:05;17.20;99.90
22212;DHT22;11275;52.488;13.462;2022-10-16T08:00:32;17.20;99.90
22212;DHT22;11275;52.488;13.462;2022-10-16T08:02:58;17.20;99.90
22212;DHT22;11275;52.488;13.462;2022-10-16T08:05:28;17.20;99.90
22212;DHT22;11275;52.488;13.462;2022-10-16T08:07:54;17.30;99.90
22212;DHT22;11275;52.488;13.462;2022-10-16T08:10:23;17.30;99.90
22212;DHT22;11275;52.488;13.462;2022-10-16T08:12:49;17.40;99.90
22212;DHT22;11275;52.488;13.462;2022-10-16T08:15:15;17.50;99.90
22212;DHT22;11275;52.488;13.462;2022-10-16T08:17:40;17.50;99.90
22212;DHT22;11275;52.488;13.462;2022-10-16T08:20:06;17.50;99.90
22212;DHT22;11275;52.488;13.462;2022-10-16T08:22:32;17.60;99.90
22212;DHT22;11275;52.488;13.462;2022-10-16T08:24:57;17.60;99.90
22212;DHT22;11275;52.488;13.462;2022-10-16T08:27:23;17.60;99.90
22212;DHT22;11275;52.488;13.462;2022-10-16T08:29:49;17.70;99.90
22212;DHT22;11275;52.488;13.462;2022-10-16T08:32:14;17.70;99.90
22212;DHT22;11275;52.488;13.462;2022-10-16T08:34:40;17.70;99.90
22212;DHT22;11275;52.488;13.462;2022-10-16T08:37:06;17.70;99.90
22212;DHT22;11275;52.488;13.462;2022-10-16T08:39:33;17.70;99.90
22212;DHT22;11275;52.488;13.462;2022-10-16T08:47:41;17.60;99.90
22212;DHT22;11275;52.488;13.462;2022-10-16T08:50:11;17.60;99.90
22212;DHT22;11275;52.488;13.462;2022-10-16T08:52:41;17.60;99.90
22212;DHT22;11275;52.488;13.462;2022-10-16T08:55:29;17.70;99.90
22212;DHT22;11275;52.488;13.462;2022-10-16T08:57:55;17.70;99.90
22212;DHT22;11275;52.488;13.462;2022-10-16T09:00:21;17.70;99.90
22212;DHT22;11275;52.488;13.462;2022-10-16T09:03:11;17.60;99.90
22212;DHT22;11275;52.488;13.462;2022-10-16T09:08:54;17.50;99.90
22212;DHT22;11275;52.488;13.462;2022-10-16T09:11:59;17.50;99.90
22212;DHT22;11275;52.488;13.462;2022-10-16T09:14:40;17.60;99.90
22212;DHT22;11275;52.488;13.462;2022-10-16T09:22:40;17.80;99.90
22212;DHT22;11275;52.488;13.462;2022-10-16T09:25:15;17.80;99.90
22212;DHT22;11275;52.488;13.462;2022-10-16T09:27:44;17.90;99.90
22212;DHT22;11275;52.488;13.462;2022-10-16T09:30:16;18.00;99.90
22212;DHT22;11275;52.488;13.462;2022-10-16T09:32:43;18.00;99.90
22212;DHT22;11275;52.488;13.462;2022-10-16T09:35:14;18.00;99.90
22212;DHT22;11275;52.488;13.462;2022-10-16T09:37:41;17.90;99.90
22212;DHT22;11275;52.488;13.462;2022-10-16T09:40:34;17.90;99.90
22212;DHT22;11275;52.488;13.462;2022-10-16T09:45:43;17.90;99.90
22212;DHT22;11275;52.488;13.462;2022-10-16T09:48:19;17.90;99.90
22212;DHT22;11275;52.488;13.462;2022-10-16T09:50:56;18.00;99.90
22212;DHT22;11275;52.488;13.462;2022-10-16T09:53:21;18.00;99.90
22212;DHT22;11275;52.488;13.462;2022-10-16T09:55:53;18.00;99.90
22212;DHT22;11275;52.488;13.462;2022-10-16T09:58:22;18.10;99.90
22212;DHT22;11275;52.488;13.462;2022-10-16T10:00:51;18.00;99.90
22212;DHT22;11275;52.488;13.462;2022-10-16T10:03:38;18.00;99.90
22212;DHT22;11275;52.488;13.462;2022-10-16T10:06:17;18.00;99.90
22212;DHT22;11275;52.488;13.462;2022-10-16T10:09:17;18.00;99.90
22212;DHT22;11275;52.488;13.462;2022-10-16T10:16:48;18.30;99.90
22212;DHT22;11275;52.488;13.462;2022-10-16T10:19:22;18.40;99.90
22212;DHT22;11275;52.488;13.462;2022-10-16T10:21:49;18.50;99.90
22212;DHT22;11275;52.488;13.462;2022-10-16T10:24:17;18.50;99.90
22212;DHT22;11275;52.488;13.462;2022-10-16T10:27:02;18.50;99.90
22212;DHT22;11275;52.488;13.462;2022-10-16T10:32:08;18.50;99.90
22212;DHT22;11275;52.488;13.462;2022-10-16T10:34:56;18.50;99.90
22212;DHT22;11275;52.488;13.462;2022-10-16T10:37:42;18.50;99.90
22212;DHT22;11275;52.488;13.462;2022-10-16T10:42:56;18.60;99.90
22212;DHT22;11275;52.488;13.462;2022-10-16T10:45:27;18.60;99.90
22212;DHT22;11275;52.488;13.462;2022-10-16T10:51:30;18.70;99.90
22212;DHT22;11275;52.488;13.462;2022-10-16T10:56:47;18.80;99.90
22212;DHT22;11275;52.488;13.462;2022-10-16T10:59:26;18.90;99.90
22212;DHT22;11275;52.488;13.462;2022-10-16T11:07:32;19.10;99.90
22212;DHT22;11275;52.488;13.462;2022-10-16T11:10:09;19.20;99.90
22212;DHT22;11275;52.488;13.462;2022-10-16T11:12:52;19.30;99.90
22212;DHT22;11275;52.488;13.462;2022-10-16T11:15:35;19.40;99.90
22212;DHT22;11275;52.488;13.462;2022-10-16T11:18:15;19.50;99.90
22212;DHT22;11275;52.488;13.462;2022-10-16T11:20:52;19.50;99.90
22212;DHT22;11275;52.488;13.462;2022-10-16T11:23:48;19.50;99.90
22212;DHT22;11275;52.488;13.462;2022-10-16T11:26:34;19.60;99.90
22212;DHT22;11275;52.488;13.462;2022-10-16T11:29:02;19.50;99.90
22212;DHT22;11275;52.488;13.462;2022-10-16T11:31:39;19.50;99.90
22212;DHT22;11275;52.488;13.462;2022-10-16T11:36:58;19.20;99.90
22212;DHT22;11275;52.488;13.462;2022-10-16T11:39:27;19.10;99.90
22212;DHT22;11275;52.488;13.462;2022-10-16T11:41:54;19.10;99.90
22212;DHT22;11275;52.488;13.462;2022-10-16T11:44:32;19.00;99.90
22212;DHT22;11275;52.488;13.462;2022-10-16T11:49:53;19.10;99.90
22212;DHT22;11275;52.488;13.462;2022-10-16T11:52:44;19.10;99.90
22212;DHT22;11275;52.488;13.462;2022-10-16T11:55:21;19.20;99.90
22212;DHT22;11275;52.488;13.462;2022-10-16T11:57:54;19.10;99.90
22212;DHT22;11275;52.488;13.462;2022-10-16T12:00:40;19.00;99.90
22212;DHT22;11275;52.488;13.462;2022-10-16T12:08:40;18.90;99.90
22212;DHT22;11275;52.488;13.462;2022-10-16T12:13:47;18.90;99.90
22212;DHT22;11275;52.488;13.462;2022-10-16T12:18:44;18.90;99.90
22212;DHT22;11275;52.488;13.462;2022-10-16T12:21:12;18.90;99.90
22212;DHT22;11275;52.488;13.462;2022-10-16T12:23:51;18.90;99.90
22212;DHT22;11275;52.488;13.462;2022-10-16T12:26:30;19.00;99.90
22212;DHT22;11275;52.488;13.462;2022-10-16T12:29:32;19.10;99.90
22212;DHT22;11275;52.488;13.462;2022-10-16T12:31:55;19.10;99.90
22212;DHT22;11275;52.488;13.462;2022-10-16T12:34:50;19.10;99.90
22212;DHT22;11275;52.488;13.462;2022-10-16T12:37:29;19.20;99.90
22212;DHT22;11275;52.488;13.462;2022-10-16T12:39:56;19.20;99.90
22212;DHT22;11275;52.488;13.462;2022-10-16T12:44:52;19.30;99.90
22212;DHT22;11275;52.488;13.462;2022-10-16T12:49:56;19.30;99.90
22212;DHT22;11275;52.488;13.462;2022-10-16T12:52:34;19.30;99.90
22212;DHT22;11275;52.488;13.462;2022-10-16T12:55:00;19.40;99.90
22212;DHT22;11275;52.488;13.462;2022-10-16T13:06:19;19.50;99.90
22212;DHT22;11275;52.488;13.462;2022-10-16T13:11:25;19.50;99.90
22212;DHT22;11275;52.488;13.462;2022-10-16T13:14:05;19.50;99.90
22212;DHT22;11275;52.488;13.462;2022-10-16T13:28:18;19.70;99.90
22212;DHT22;11275;52.488;13.462;2022-10-16T13:30:52;19.70;99.90
22212;DHT22;11275;52.488;13.462;2022-10-16T13:33:31;19.70;99.90
22212;DHT22;11275;52.488;13.462;2022-10-16T13:35:57;19.70;99.90
22212;DHT22;11275;52.488;13.462;2022-10-16T13:40:52;19.60;99.90
22212;DHT22;11275;52.488;13.462;2022-10-16T13:43:20;19.60;99.90
22212;DHT22;11275;52.488;13.462;2022-10-16T13:45:58;19.60;99.90
22212;DHT22;11275;52.488;13.462;2022-10-16T13:48:24;19.60;99.90
22212;DHT22;11275;52.488;13.462;2022-10-16T13:51:01;19.60;99.90
22212;DHT22;11275;52.488;13.462;2022-10-16T13:53:27;19.60;99.90
22212;DHT22;11275;52.488;13.462;2022-10-16T13:55:52;19.60;99.90
22212;DHT22;11275;52.488;13.462;2022-10-16T13:58:18;19.50;99.90
22212;DHT22;11275;52.488;13.462;2022-10-16T14:00:56;19.50;99.90
22212;DHT22;11275;52.488;13.462;2022-10-16T14:03:22;19.60;99.90
22212;DHT22;11275;52.488;13.462;2022-10-16T14:05:54;19.60;99.90
22212;DHT22;11275;52.488;13.462;2022-10-16T14:08:20;19.60;99.90
22212;DHT22;11275;52.488;13.462;2022-10-16T14:10:52;19.60;99.90
22212;DHT22;11275;52.488;13.462;2022-10-16T14:16:05;19.60;99.90
22212;DHT22;11275;52.488;13.462;2022-10-16T14:18:31;19.60;99.90
22212;DHT22;11275;52.488;13.462;2022-10-16T14:21:04;19.60;99.90
22212;DHT22;11275;52.488;13.462;2022-10-16T14:23:34;19.60;99.90
22212;DHT22;11275;52.488;13.462;2022-10-16T14:28:38;19.50;99.90
22212;DHT22;11275;52.488;13.462;2022-10-16T14:31:30;19.50;99.90
22212;DHT22;11275;52.488;13.462;2022-10-16T14:33:56;19.50;99.90
22212;DHT22;11275;52.488;13.462;2022-10-16T14:36:22;19.50;99.90
22212;DHT22;11275;52.488;13.462;2022-10-16T14:41:21;19.40;99.90
22212;DHT22;11275;52.488;13.462;2022-10-16T14:43:51;19.40;99.90
22212;DHT22;11275;52.488;13.462;2022-10-16T14:46:20;19.40;99.90
22212;DHT22;11275;52.488;13.462;2022-10-16T14:48:48;19.40;99.90
22212;DHT22;11275;52.488;13.462;2022-10-16T14:51:19;19.50;99.90
22212;DHT22;11275;52.488;13.462;2022-10-16T14:53:45;19.50;99.90
22212;DHT22;11275;52.488;13.462;2022-10-16T14:56:21;19.40;99.90
22212;DHT22;11275;52.488;13.462;2022-10-16T14:58:47;19.40;99.90
22212;DHT22;11275;52.488;13.462;2022-10-16T15:01:14;19.40;99.90
22212;DHT22;11275;52.488;13.462;2022-10-16T15:03:39;19.30;99.90
22212;DHT22;11275;52.488;13.462;2022-10-16T15:06:10;19.40;99.90
22212;DHT22;11275;52.488;13.462;2022-10-16T15:08:36;19.30;99.90
22212;DHT22;11275;52.488;13.462;2022-10-16T15:11:02;19.30;99.90
22212;DHT22;11275;52.488;13.462;2022-10-16T15:13:28;19.30;99.90
22212;DHT22;11275;52.488;13.462;2022-10-16T15:15:53;19.30;99.90
22212;DHT22;11275;52.488;13.462;2022-10-16T15:18:19;19.30;99.90
22212;DHT22;11275;52.488;13.462;2022-10-16T15:20:48;19.30;99.90
22212;DHT22;11275;52.488;13.462;2022-10-16T15:23:22;19.30;99.90
22212;DHT22;11275;52.488;13.462;2022-10-16T15:25:50;19.30;99.90
22212;DHT22;11275;52.488;13.462;2022-10-16T15:28:17;19.20;99.90
22212;DHT22;11275;52.488;13.462;2022-10-16T15:30:43;19.20;99.90
22212;DHT22;11275;52.488;13.462;2022-10-16T15:33:18;19.10;99.90
22212;DHT22;11275;52.488;13.462;2022-10-16T15:35:47;19.10;99.90
22212;DHT22;11275;52.488;13.462;2022-10-16T15:38:14;19.10;99.90
22212;DHT22;11275;52.488;13.462;2022-10-16T15:40:41;19.10;99.90
22212;DHT22;11275;52.488;13.462;2022-10-16T15:43:07;19.00;99.90
22212;DHT22;11275;52.488;13.462;2022-10-16T15:45:33;19.00;99.90
22212;DHT22;11275;52.488;13.462;2022-10-16T15:47:58;19.00;99.90
22212;DHT22;11275;52.488;13.462;2022-10-16T15:50:24;18.90;99.90
22212;DHT22;11275;52.488;13.462;2022-10-16T15:52:50;18.90;99.90
22212;DHT22;11275;52.488;13.462;2022-10-16T15:55:16;18.90;99.90
22212;DHT22;11275;52.488;13.462;2022-10-16T15:57:44;18.90;99.90
22212;DHT22;11275;52.488;13.462;2022-10-16T16:00:13;18.90;99.90
22212;DHT22;11275;52.488;13.462;2022-10-16T16:02:39;18.80;99.90
22212;DHT22;11275;52.488;13.462;2022-10-16T16:05:06;18.80;99.90
22212;DHT22;11275;52.488;13.462;2022-10-16T16:07:38;18.70;99.90
22212;DHT22;11275;52.488;13.462;2022-10-16T16:10:05;18.70;99.90
22212;DHT22;11275;52.488;13.462;2022-10-16T16:12:32;18.70;99.90
22212;DHT22;11275;52.488;13.462;2022-10-16T16:14:58;18.70;99.90
22212;DHT22;11275;52.488;13.462;2022-10-16T16:17:23;18.60;99.90
22212;DHT22;11275;52.488;13.462;2022-10-16T16:19:49;18.60;99.90
22212;DHT22;11275;52.488;13.462;2022-10-16T16:22:15;18.50;99.90
22212;DHT22;11275;52.488;13.462;2022-10-16T16:24:41;18.50;99.90
22212;DHT22;11275;52.488;13.462;2022-10-16T16:27:06;18.50;99.90
22212;DHT22;11275;52.488;13.462;2022-10-16T16:29:32;18.50;99.90
22212;DHT22;11275;52.488;13.462;2022-10-16T16:31:59;18.40;99.90
22212;DHT22;11275;52.488;13.462;2022-10-16T16:34:26;18.40;99.90
22212;DHT22;11275;52.488;13.462;2022-10-16T16:36:52;18.30;99.90
22212;DHT22;11275;52.488;13.462;2022-10-16T16:39:18;18.30;99.90
22212;DHT22;11275;52.488;13.462;2022-10-16T16:41:44;18.30;99.90
22212;DHT22;11275;52.488;13.462;2022-10-16T16:44:11;18.20;99.90
22212;DHT22;11275;52.488;13.462;2022-10-16T16:46:37;18.20;99.90
22212;DHT22;11275;52.488;13.462;2022-10-16T16:49:05;18.10;99.90
22212;DHT22;11275;52.488;13.462;2022-10-16T16:51:32;18.10;99.90
22212;DHT22;11275;52.488;13.462;2022-10-16T16:53:58;18.00;99.90
22212;DHT22;11275;52.488;13.462;2022-10-16T16:56:24;17.90;99.90
22212;DHT22;11275;52.488;13.462;2022-10-16T16:58:53;17.90;99.90
22212;DHT22;11275;52.488;13.462;2022-10-16T17:01:19;17.80;99.90
22212;DHT22;11275;52.488;13.462;2022-10-16T17:03:52;17.80;99.90
22212;DHT22;11275;52.488;13.462;2022-10-16T17:06:20;17.70;99.90
22212;DHT22;11275;52.488;13.462;2022-10-16T17:08:46;17.70;99.90
22212;DHT22;11275;52.488;13.462;2022-10-16T17:11:14;17.60;99.90
22212;DHT22;11275;52.488;13.462;2022-10-16T17:13:41;17.60;99.90
22212;DHT22;11275;52.488;13.462;2022-10-16T17:16:07;17.50;99.90
22212;DHT22;11275;52.488;13.462;2022-10-16T17:18:36;17.50;99.90
22212;DHT22;11275;52.488;13.462;2022-10-16T17:21:05;17.40;99.90
22212;DHT22;11275;52.488;13.462;2022-10-16T17:23:31;17.40;99.90
22212;DHT22;11275;52.488;13.462;2022-10-16T17:26:10;17.30;99.90
22212;DHT22;11275;52.488;13.462;2022-10-16T17:28:36;17.30;99.90
22212;DHT22;11275;52.488;13.462;2022-10-16T17:31:14;17.20;99.90